Waiouru, New Zealand
Current Conditions -  °F | °C
As of 9:00 AM on Friday 19 Dec 2014 (Local Time) from NZWN Reporting Station
Broken Clouds Broken Clouds  
Wind Chill: 63°   Ceiling: 1200
Heat Index: 63°   Visibility: 6mi
Dew Point: 57°   Wind: 21mph
Humidity: 82%   Direction: 350°N
Pressure: 29.97"   Gusts: NA
Location:  39.48°S, 175.67°E
Report Text: NZWN 182100Z AUTO 35018KT 9999 BKN012/// 17/14 Q1015 BECMGFM2200 34020G30KT BKN020
Loading
Personal Weather Stations






























Interactive Weather Map New forecast layout! Learn more

10-Day Weather Forecast

Advertisements
Track Severe Weather on mobile